sensor_id;sensor_type;location;lat;lon;timestamp;temperature;humidity
16635;DHT22;8431;52.458;9.998;2023-08-12T00:02:13;17.70;99.90
16635;DHT22;8431;52.458;9.998;2023-08-12T00:04:41;17.60;99.90
16635;DHT22;8431;52.458;9.998;2023-08-12T00:07:08;17.60;99.90
16635;DHT22;8431;52.458;9.998;2023-08-12T00:09:35;17.40;99.90
16635;DHT22;8431;52.458;9.998;2023-08-12T00:12:04;17.40;99.90
16635;DHT22;8431;52.458;9.998;2023-08-12T00:14:31;17.30;99.90
16635;DHT22;8431;52.458;9.998;2023-08-12T00:16:57;17.30;99.90
16635;DHT22;8431;52.458;9.998;2023-08-12T00:19:24;17.30;99.90
16635;DHT22;8431;52.458;9.998;2023-08-12T00:21:51;17.40;99.90
16635;DHT22;8431;52.458;9.998;2023-08-12T00:24:18;17.30;99.90
16635;DHT22;8431;52.458;9.998;2023-08-12T00:26:46;17.30;99.90
16635;DHT22;8431;52.458;9.998;2023-08-12T00:29:14;17.30;99.90
16635;DHT22;8431;52.458;9.998;2023-08-12T00:31:41;17.20;99.90
16635;DHT22;8431;52.458;9.998;2023-08-12T00:34:08;17.20;99.90
16635;DHT22;8431;52.458;9.998;2023-08-12T00:36:35;17.20;99.90
16635;DHT22;8431;52.458;9.998;2023-08-12T00:39:02;17.30;99.90
16635;DHT22;8431;52.458;9.998;2023-08-12T00:41:30;17.30;99.90
16635;DHT22;8431;52.458;9.998;2023-08-12T00:43:57;17.40;99.90
16635;DHT22;8431;52.458;9.998;2023-08-12T00:46:25;17.40;99.90
16635;DHT22;8431;52.458;9.998;2023-08-12T00:48:52;17.40;99.90
16635;DHT22;8431;52.458;9.998;2023-08-12T00:51:20;17.40;99.90
16635;DHT22;8431;52.458;9.998;2023-08-12T00:53:47;17.40;99.90
16635;DHT22;8431;52.458;9.998;2023-08-12T00:56:14;17.40;99.90
16635;DHT22;8431;52.458;9.998;2023-08-12T00:58:41;17.40;99.90
16635;DHT22;8431;52.458;9.998;2023-08-12T01:03:38;17.40;99.90
16635;DHT22;8431;52.458;9.998;2023-08-12T01:06:07;17.50;99.90
16635;DHT22;8431;52.458;9.998;2023-08-12T01:08:35;17.60;99.90
16635;DHT22;8431;52.458;9.998;2023-08-12T01:11:05;17.70;99.90
16635;DHT22;8431;52.458;9.998;2023-08-12T01:13:39;17.70;99.90
16635;DHT22;8431;52.458;9.998;2023-08-12T01:16:09;17.70;99.90
16635;DHT22;8431;52.458;9.998;2023-08-12T01:18:38;17.50;99.90
16635;DHT22;8431;52.458;9.998;2023-08-12T01:21:08;17.40;99.90
16635;DHT22;8431;52.458;9.998;2023-08-12T01:23:39;17.30;99.90
16635;DHT22;8431;52.458;9.998;2023-08-12T01:26:06;17.30;99.90
16635;DHT22;8431;52.458;9.998;2023-08-12T01:28:33;17.30;99.90
16635;DHT22;8431;52.458;9.998;2023-08-12T01:31:05;17.40;99.90
16635;DHT22;8431;52.458;9.998;2023-08-12T01:33:39;17.40;99.90
16635;DHT22;8431;52.458;9.998;2023-08-12T01:36:09;17.60;99.90
16635;DHT22;8431;52.458;9.998;2023-08-12T01:38:40;17.80;99.90
16635;DHT22;8431;52.458;9.998;2023-08-12T01:44:15;17.80;99.90
16635;DHT22;8431;52.458;9.998;2023-08-12T01:46:43;17.70;99.90
16635;DHT22;8431;52.458;9.998;2023-08-12T01:49:11;17.70;99.90
16635;DHT22;8431;52.458;9.998;2023-08-12T01:51:37;17.70;99.90
16635;DHT22;8431;52.458;9.998;2023-08-12T01:54:06;17.70;99.90
16635;DHT22;8431;52.458;9.998;2023-08-12T01:56:33;17.50;99.90
16635;DHT22;8431;52.458;9.998;2023-08-12T01:59:00;17.40;99.90
16635;DHT22;8431;52.458;9.998;2023-08-12T02:01:27;17.40;99.90
16635;DHT22;8431;52.458;9.998;2023-08-12T02:03:54;17.50;99.90
16635;DHT22;8431;52.458;9.998;2023-08-12T02:06:21;17.60;99.90
16635;DHT22;8431;52.458;9.998;2023-08-12T02:08:48;17.50;99.90
16635;DHT22;8431;52.458;9.998;2023-08-12T02:11:17;17.50;99.90
16635;DHT22;8431;52.458;9.998;2023-08-12T02:13:44;17.60;99.90
16635;DHT22;8431;52.458;9.998;2023-08-12T02:16:11;17.70;99.90
16635;DHT22;8431;52.458;9.998;2023-08-12T02:18:38;17.80;99.90
16635;DHT22;8431;52.458;9.998;2023-08-12T02:21:05;18.00;99.90
16635;DHT22;8431;52.458;9.998;2023-08-12T02:23:32;18.00;99.90
16635;DHT22;8431;52.458;9.998;2023-08-12T02:25:59;18.10;99.90
16635;DHT22;8431;52.458;9.998;2023-08-12T02:28:27;18.20;99.90
16635;DHT22;8431;52.458;9.998;2023-08-12T02:30:54;18.30;99.90
16635;DHT22;8431;52.458;9.998;2023-08-12T02:33:21;18.30;99.90
16635;DHT22;8431;52.458;9.998;2023-08-12T02:35:48;18.20;99.90
16635;DHT22;8431;52.458;9.998;2023-08-12T02:38:19;18.30;99.90
16635;DHT22;8431;52.458;9.998;2023-08-12T02:40:48;18.20;99.90
16635;DHT22;8431;52.458;9.998;2023-08-12T02:43:14;18.10;99.90
16635;DHT22;8431;52.458;9.998;2023-08-12T02:45:43;18.10;99.90
16635;DHT22;8431;52.458;9.998;2023-08-12T02:48:10;18.20;99.90
16635;DHT22;8431;52.458;9.998;2023-08-12T02:50:38;18.10;99.90
16635;DHT22;8431;52.458;9.998;2023-08-12T02:53:05;18.10;99.90
16635;DHT22;8431;52.458;9.998;2023-08-12T02:55:32;18.20;99.90
16635;DHT22;8431;52.458;9.998;2023-08-12T02:58:00;18.20;99.90
16635;DHT22;8431;52.458;9.998;2023-08-12T03:00:27;18.40;99.90
16635;DHT22;8431;52.458;9.998;2023-08-12T03:02:55;18.50;99.90
16635;DHT22;8431;52.458;9.998;2023-08-12T03:05:22;18.40;99.90
16635;DHT22;8431;52.458;9.998;2023-08-12T03:07:50;18.30;99.90
16635;DHT22;8431;52.458;9.998;2023-08-12T03:10:18;18.20;99.90
16635;DHT22;8431;52.458;9.998;2023-08-12T03:12:45;18.30;99.90
16635;DHT22;8431;52.458;9.998;2023-08-12T03:15:12;18.30;99.90
16635;DHT22;8431;52.458;9.998;2023-08-12T03:17:38;18.30;99.90
16635;DHT22;8431;52.458;9.998;2023-08-12T03:20:08;18.30;99.90
16635;DHT22;8431;52.458;9.998;2023-08-12T03:22:35;18.20;99.90
16635;DHT22;8431;52.458;9.998;2023-08-12T03:25:03;18.30;99.90
16635;DHT22;8431;52.458;9.998;2023-08-12T03:27:30;18.30;99.90
16635;DHT22;8431;52.458;9.998;2023-08-12T03:29:57;18.30;99.90
16635;DHT22;8431;52.458;9.998;2023-08-12T03:32:25;18.30;99.90
16635;DHT22;8431;52.458;9.998;2023-08-12T03:34:52;18.50;99.90
16635;DHT22;8431;52.458;9.998;2023-08-12T03:37:20;18.50;99.90
16635;DHT22;8431;52.458;9.998;2023-08-12T03:39:47;18.40;99.90
16635;DHT22;8431;52.458;9.998;2023-08-12T03:42:14;18.40;99.90
16635;DHT22;8431;52.458;9.998;2023-08-12T03:44:42;18.60;99.90
16635;DHT22;8431;52.458;9.998;2023-08-12T03:47:09;18.60;99.90
16635;DHT22;8431;52.458;9.998;2023-08-12T03:49:36;18.50;99.90
16635;DHT22;8431;52.458;9.998;2023-08-12T03:52:04;18.60;99.90
16635;DHT22;8431;52.458;9.998;2023-08-12T03:54:34;18.50;99.90
16635;DHT22;8431;52.458;9.998;2023-08-12T03:57:01;18.60;99.90
16635;DHT22;8431;52.458;9.998;2023-08-12T03:59:27;18.70;99.90
16635;DHT22;8431;52.458;9.998;2023-08-12T04:01:54;18.80;99.90
16635;DHT22;8431;52.458;9.998;2023-08-12T04:04:21;18.70;99.90
16635;DHT22;8431;52.458;9.998;2023-08-12T04:06:48;18.80;99.90
16635;DHT22;8431;52.458;9.998;2023-08-12T04:09:17;18.90;99.90
16635;DHT22;8431;52.458;9.998;2023-08-12T04:11:45;19.00;99.90
16635;DHT22;8431;52.458;9.998;2023-08-12T04:14:13;18.90;99.90
16635;DHT22;8431;52.458;9.998;2023-08-12T04:16:40;18.90;99.90
16635;DHT22;8431;52.458;9.998;2023-08-12T04:19:07;18.90;99.90
16635;DHT22;8431;52.458;9.998;2023-08-12T04:21:34;18.80;99.90
16635;DHT22;8431;52.458;9.998;2023-08-12T04:24:01;18.70;99.90
16635;DHT22;8431;52.458;9.998;2023-08-12T04:26:28;18.70;99.90
16635;DHT22;8431;52.458;9.998;2023-08-12T04:28:56;18.80;99.90
16635;DHT22;8431;52.458;9.998;2023-08-12T04:31:23;18.80;99.90
16635;DHT22;8431;52.458;9.998;2023-08-12T04:33:50;18.80;99.90
16635;DHT22;8431;52.458;9.998;2023-08-12T04:36:18;19.00;99.90
16635;DHT22;8431;52.458;9.998;2023-08-12T04:38:45;18.80;99.90
16635;DHT22;8431;52.458;9.998;2023-08-12T04:41:12;19.00;99.90
16635;DHT22;8431;52.458;9.998;2023-08-12T04:43:39;18.90;99.90
16635;DHT22;8431;52.458;9.998;2023-08-12T04:46:08;19.00;99.90
16635;DHT22;8431;52.458;9.998;2023-08-12T04:48:35;19.00;99.90
16635;DHT22;8431;52.458;9.998;2023-08-12T04:51:02;19.00;99.90
16635;DHT22;8431;52.458;9.998;2023-08-12T04:53:30;18.90;99.90
16635;DHT22;8431;52.458;9.998;2023-08-12T04:55:57;18.90;99.90
16635;DHT22;8431;52.458;9.998;2023-08-12T04:58:24;18.80;99.90
16635;DHT22;8431;52.458;9.998;2023-08-12T05:00:51;18.80;99.90
16635;DHT22;8431;52.458;9.998;2023-08-12T05:03:20;18.70;99.90
16635;DHT22;8431;52.458;9.998;2023-08-12T05:05:49;18.60;99.90
16635;DHT22;8431;52.458;9.998;2023-08-12T05:08:16;18.60;99.90
16635;DHT22;8431;52.458;9.998;2023-08-12T05:10:43;18.50;99.90
16635;DHT22;8431;52.458;9.998;2023-08-12T05:13:10;18.50;99.90
16635;DHT22;8431;52.458;9.998;2023-08-12T05:15:37;18.60;99.90
16635;DHT22;8431;52.458;9.998;2023-08-12T05:18:06;18.50;99.90
16635;DHT22;8431;52.458;9.998;2023-08-12T05:20:34;18.50;99.90
16635;DHT22;8431;52.458;9.998;2023-08-12T05:23:01;18.50;99.90
16635;DHT22;8431;52.458;9.998;2023-08-12T05:25:28;18.50;99.90
16635;DHT22;8431;52.458;9.998;2023-08-12T05:27:55;18.50;99.90
16635;DHT22;8431;52.458;9.998;2023-08-12T05:30:22;18.60;99.90
16635;DHT22;8431;52.458;9.998;2023-08-12T05:32:49;18.60;99.90
16635;DHT22;8431;52.458;9.998;2023-08-12T05:35:16;18.60;99.90
16635;DHT22;8431;52.458;9.998;2023-08-12T05:37:44;18.70;99.90
16635;DHT22;8431;52.458;9.998;2023-08-12T05:40:11;18.70;99.90
16635;DHT22;8431;52.458;9.998;2023-08-12T05:42:38;18.80;99.90
16635;DHT22;8431;52.458;9.998;2023-08-12T05:45:06;18.90;99.90
16635;DHT22;8431;52.458;9.998;2023-08-12T05:47:33;19.00;99.90
16635;DHT22;8431;52.458;9.998;2023-08-12T05:50:00;19.10;99.90
16635;DHT22;8431;52.458;9.998;2023-08-12T05:52:27;19.30;99.90
16635;DHT22;8431;52.458;9.998;2023-08-12T05:54:55;19.40;99.90
16635;DHT22;8431;52.458;9.998;2023-08-12T05:57:22;19.40;99.90
16635;DHT22;8431;52.458;9.998;2023-08-12T05:59:49;19.40;99.90
16635;DHT22;8431;52.458;9.998;2023-08-12T06:02:16;19.20;99.90
16635;DHT22;8431;52.458;9.998;2023-08-12T06:04:44;19.20;99.90
16635;DHT22;8431;52.458;9.998;2023-08-12T06:07:11;19.10;99.90
16635;DHT22;8431;52.458;9.998;2023-08-12T06:09:38;19.10;99.90
16635;DHT22;8431;52.458;9.998;2023-08-12T06:12:07;19.10;99.90
16635;DHT22;8431;52.458;9.998;2023-08-12T06:14:38;19.10;99.90
16635;DHT22;8431;52.458;9.998;2023-08-12T06:17:05;19.10;99.90
16635;DHT22;8431;52.458;9.998;2023-08-12T06:19:33;19.10;99.90
16635;DHT22;8431;52.458;9.998;2023-08-12T06:22:00;19.10;99.90
16635;DHT22;8431;52.458;9.998;2023-08-12T06:24:27;19.10;99.90
16635;DHT22;8431;52.458;9.998;2023-08-12T06:26:54;19.10;99.90
16635;DHT22;8431;52.458;9.998;2023-08-12T06:29:22;19.20;99.90
16635;DHT22;8431;52.458;9.998;2023-08-12T06:31:49;19.30;99.90
16635;DHT22;8431;52.458;9.998;2023-08-12T06:34:16;19.30;99.90
16635;DHT22;8431;52.458;9.998;2023-08-12T06:36:43;19.30;99.90
16635;DHT22;8431;52.458;9.998;2023-08-12T06:39:10;19.40;99.90
16635;DHT22;8431;52.458;9.998;2023-08-12T06:41:37;19.50;99.90
16635;DHT22;8431;52.458;9.998;2023-08-12T06:44:05;19.60;99.90
16635;DHT22;8431;52.458;9.998;2023-08-12T06:46:33;19.60;99.90
16635;DHT22;8431;52.458;9.998;2023-08-12T06:49:00;19.70;99.90
16635;DHT22;8431;52.458;9.998;2023-08-12T06:51:27;19.90;99.90
16635;DHT22;8431;52.458;9.998;2023-08-12T06:53:54;20.00;99.90
16635;DHT22;8431;52.458;9.998;2023-08-12T06:56:21;20.10;99.90
16635;DHT22;8431;52.458;9.998;2023-08-12T06:58:48;20.20;99.90
16635;DHT22;8431;52.458;9.998;2023-08-12T07:01:15;20.30;99.90
16635;DHT22;8431;52.458;9.998;2023-08-12T07:03:43;20.20;99.90
16635;DHT22;8431;52.458;9.998;2023-08-12T07:06:10;20.30;99.90
16635;DHT22;8431;52.458;9.998;2023-08-12T07:08:37;20.40;99.90
16635;DHT22;8431;52.458;9.998;2023-08-12T07:11:04;20.30;99.90
16635;DHT22;8431;52.458;9.998;2023-08-12T07:13:31;20.50;99.90
16635;DHT22;8431;52.458;9.998;2023-08-12T07:15:59;20.60;99.90
16635;DHT22;8431;52.458;9.998;2023-08-12T07:18:26;20.80;99.90
16635;DHT22;8431;52.458;9.998;2023-08-12T07:20:54;20.90;99.90
16635;DHT22;8431;52.458;9.998;2023-08-12T07:23:21;20.90;99.90
16635;DHT22;8431;52.458;9.998;2023-08-12T07:25:48;20.90;99.90
16635;DHT22;8431;52.458;9.998;2023-08-12T07:28:15;21.20;99.90
16635;DHT22;8431;52.458;9.998;2023-08-12T07:30:42;21.20;99.90
16635;DHT22;8431;52.458;9.998;2023-08-12T07:33:09;21.80;99.90
16635;DHT22;8431;52.458;9.998;2023-08-12T07:35:36;21.70;99.90
16635;DHT22;8431;52.458;9.998;2023-08-12T07:38:04;21.70;99.90
16635;DHT22;8431;52.458;9.998;2023-08-12T07:40:31;21.90;99.90
16635;DHT22;8431;52.458;9.998;2023-08-12T07:42:58;22.10;99.90
16635;DHT22;8431;52.458;9.998;2023-08-12T07:45:25;22.00;99.90
16635;DHT22;8431;52.458;9.998;2023-08-12T07:47:52;21.90;99.90
16635;DHT22;8431;52.458;9.998;2023-08-12T07:50:19;21.90;99.90
16635;DHT22;8431;52.458;9.998;2023-08-12T07:52:46;22.10;99.90
16635;DHT22;8431;52.458;9.998;2023-08-12T07:55:15;22.40;99.90
16635;DHT22;8431;52.458;9.998;2023-08-12T07:57:42;22.30;99.90
16635;DHT22;8431;52.458;9.998;2023-08-12T08:00:09;22.30;99.90
16635;DHT22;8431;52.458;9.998;2023-08-12T08:02:37;22.30;99.90
16635;DHT22;8431;52.458;9.998;2023-08-12T08:05:05;22.50;99.90
16635;DHT22;8431;52.458;9.998;2023-08-12T08:07:33;22.50;99.90
16635;DHT22;8431;52.458;9.998;2023-08-12T08:10:00;22.60;99.90
16635;DHT22;8431;52.458;9.998;2023-08-12T08:12:28;22.70;99.90
16635;DHT22;8431;52.458;9.998;2023-08-12T08:14:55;22.70;99.90
16635;DHT22;8431;52.458;9.998;2023-08-12T08:17:22;22.70;99.90
16635;DHT22;8431;52.458;9.998;2023-08-12T08:19:49;22.60;99.90
16635;DHT22;8431;52.458;9.998;2023-08-12T08:22:16;22.40;99.90
16635;DHT22;8431;52.458;9.998;2023-08-12T08:24:43;22.00;99.90
16635;DHT22;8431;52.458;9.998;2023-08-12T08:27:10;21.70;99.90
16635;DHT22;8431;52.458;9.998;2023-08-12T08:29:40;21.70;99.90
16635;DHT22;8431;52.458;9.998;2023-08-12T08:32:07;21.70;99.90
16635;DHT22;8431;52.458;9.998;2023-08-12T08:34:34;21.70;99.90
16635;DHT22;8431;52.458;9.998;2023-08-12T08:37:01;21.90;99.90
16635;DHT22;8431;52.458;9.998;2023-08-12T08:39:28;22.20;99.90
16635;DHT22;8431;52.458;9.998;2023-08-12T08:41:56;22.20;99.90
16635;DHT22;8431;52.458;9.998;2023-08-12T08:44:29;22.00;99.90
16635;DHT22;8431;52.458;9.998;2023-08-12T08:46:58;21.70;99.90
16635;DHT22;8431;52.458;9.998;2023-08-12T08:49:26;21.60;99.90
16635;DHT22;8431;52.458;9.998;2023-08-12T08:51:54;21.40;99.90
16635;DHT22;8431;52.458;9.998;2023-08-12T08:54:22;21.30;99.90
16635;DHT22;8431;52.458;9.998;2023-08-12T08:56:49;21.20;99.90
16635;DHT22;8431;52.458;9.998;2023-08-12T08:59:17;21.10;99.90
16635;DHT22;8431;52.458;9.998;2023-08-12T09:01:45;21.10;99.90
16635;DHT22;8431;52.458;9.998;2023-08-12T09:04:15;21.10;99.90
16635;DHT22;8431;52.458;9.998;2023-08-12T09:06:43;21.20;99.90
16635;DHT22;8431;52.458;9.998;2023-08-12T09:09:13;21.30;99.90
16635;DHT22;8431;52.458;9.998;2023-08-12T09:11:42;21.40;99.90
16635;DHT22;8431;52.458;9.998;2023-08-12T09:14:11;21.60;99.90
16635;DHT22;8431;52.458;9.998;2023-08-12T09:16:39;21.70;99.90
16635;DHT22;8431;52.458;9.998;2023-08-12T09:19:06;21.80;99.90
16635;DHT22;8431;52.458;9.998;2023-08-12T09:21:35;21.60;99.90
16635;DHT22;8431;52.458;9.998;2023-08-12T09:24:03;21.50;99.90
16635;DHT22;8431;52.458;9.998;2023-08-12T09:26:31;21.20;99.90
16635;DHT22;8431;52.458;9.998;2023-08-12T09:28:59;21.00;99.90
16635;DHT22;8431;52.458;9.998;2023-08-12T09:31:27;21.00;99.90
16635;DHT22;8431;52.458;9.998;2023-08-12T09:33:57;21.00;99.90
16635;DHT22;8431;52.458;9.998;2023-08-12T09:36:27;21.00;99.90
16635;DHT22;8431;52.458;9.998;2023-08-12T09:38:56;21.00;99.90
16635;DHT22;8431;52.458;9.998;2023-08-12T09:41:24;21.00;99.90
16635;DHT22;8431;52.458;9.998;2023-08-12T09:43:51;21.40;99.90
16635;DHT22;8431;52.458;9.998;2023-08-12T09:46:21;21.80;99.90
16635;DHT22;8431;52.458;9.998;2023-08-12T09:48:49;22.20;99.90
16635;DHT22;8431;52.458;9.998;2023-08-12T09:51:17;22.40;99.90
16635;DHT22;8431;52.458;9.998;2023-08-12T09:53:44;22.40;99.90
16635;DHT22;8431;52.458;9.998;2023-08-12T09:56:13;22.80;99.90
16635;DHT22;8431;52.458;9.998;2023-08-12T09:58:43;22.90;99.90
16635;DHT22;8431;52.458;9.998;2023-08-12T10:01:11;22.90;99.90
16635;DHT22;8431;52.458;9.998;2023-08-12T10:03:40;23.00;99.90
16635;DHT22;8431;52.458;9.998;2023-08-12T10:06:07;23.10;99.90
16635;DHT22;8431;52.458;9.998;2023-08-12T10:08:35;23.10;99.90
16635;DHT22;8431;52.458;9.998;2023-08-12T10:11:03;23.20;99.90
16635;DHT22;8431;52.458;9.998;2023-08-12T10:13:31;23.10;99.90
16635;DHT22;8431;52.458;9.998;2023-08-12T10:15:58;23.30;99.90
16635;DHT22;8431;52.458;9.998;2023-08-12T10:18:28;23.20;99.90
16635;DHT22;8431;52.458;9.998;2023-08-12T10:20:57;23.40;99.90
16635;DHT22;8431;52.458;9.998;2023-08-12T10:23:26;23.40;99.90
16635;DHT22;8431;52.458;9.998;2023-08-12T10:25:55;23.40;99.90
16635;DHT22;8431;52.458;9.998;2023-08-12T10:28:23;23.20;99.90
16635;DHT22;8431;52.458;9.998;2023-08-12T10:30:51;23.10;99.90
16635;DHT22;8431;52.458;9.998;2023-08-12T10:33:19;22.90;99.90
16635;DHT22;8431;52.458;9.998;2023-08-12T10:35:47;22.70;99.90
16635;DHT22;8431;52.458;9.998;2023-08-12T10:38:17;22.70;99.90
16635;DHT22;8431;52.458;9.998;2023-08-12T10:40:44;22.80;99.90
16635;DHT22;8431;52.458;9.998;2023-08-12T10:43:12;22.90;99.90
16635;DHT22;8431;52.458;9.998;2023-08-12T10:45:44;22.90;99.90
16635;DHT22;8431;52.458;9.998;2023-08-12T10:48:24;23.10;99.90
16635;DHT22;8431;52.458;9.998;2023-08-12T10:50:53;23.30;99.90
16635;DHT22;8431;52.458;9.998;2023-08-12T10:53:22;23.90;99.90
16635;DHT22;8431;52.458;9.998;2023-08-12T10:55:50;24.40;99.90
16635;DHT22;8431;52.458;9.998;2023-08-12T10:58:26;24.40;99.90
16635;DHT22;8431;52.458;9.998;2023-08-12T11:00:54;24.10;99.90
16635;DHT22;8431;52.458;9.998;2023-08-12T11:03:22;23.70;99.90
16635;DHT22;8431;52.458;9.998;2023-08-12T11:05:49;23.80;99.90
16635;DHT22;8431;52.458;9.998;2023-08-12T11:08:24;24.00;99.90
16635;DHT22;8431;52.458;9.998;2023-08-12T11:10:54;24.40;99.90
16635;DHT22;8431;52.458;9.998;2023-08-12T11:13:22;24.60;99.90
16635;DHT22;8431;52.458;9.998;2023-08-12T11:15:50;24.60;99.90
16635;DHT22;8431;52.458;9.998;2023-08-12T11:18:18;24.50;99.90
16635;DHT22;8431;52.458;9.998;2023-08-12T11:20:48;24.70;99.90
16635;DHT22;8431;52.458;9.998;2023-08-12T11:23:16;24.70;99.90
16635;DHT22;8431;52.458;9.998;2023-08-12T11:25:44;24.60;99.90
16635;DHT22;8431;52.458;9.998;2023-08-12T11:28:11;24.80;99.90
16635;DHT22;8431;52.458;9.998;2023-08-12T11:30:40;25.10;99.90
16635;DHT22;8431;52.458;9.998;2023-08-12T11:33:09;25.50;99.90
16635;DHT22;8431;52.458;9.998;2023-08-12T11:35:36;25.60;99.90
16635;DHT22;8431;52.458;9.998;2023-08-12T11:38:06;25.60;99.90
16635;DHT22;8431;52.458;9.998;2023-08-12T11:40:33;25.30;99.90
16635;DHT22;8431;52.458;9.998;2023-08-12T11:43:02;25.60;99.90
16635;DHT22;8431;52.458;9.998;2023-08-12T11:45:29;26.00;99.90
16635;DHT22;8431;52.458;9.998;2023-08-12T11:47:56;25.70;99.90
16635;DHT22;8431;52.458;9.998;2023-08-12T11:50:24;25.70;99.90
16635;DHT22;8431;52.458;9.998;2023-08-12T11:52:51;25.90;99.90
16635;DHT22;8431;52.458;9.998;2023-08-12T11:55:20;25.40;99.90
16635;DHT22;8431;52.458;9.998;2023-08-12T11:57:47;25.10;99.90
16635;DHT22;8431;52.458;9.998;2023-08-12T12:00:14;24.70;99.90
16635;DHT22;8431;52.458;9.998;2023-08-12T12:02:47;24.90;99.90
16635;DHT22;8431;52.458;9.998;2023-08-12T12:05:14;24.80;99.90
16635;DHT22;8431;52.458;9.998;2023-08-12T12:07:41;24.60;99.90
16635;DHT22;8431;52.458;9.998;2023-08-12T12:10:12;24.30;99.90
16635;DHT22;8431;52.458;9.998;2023-08-12T12:12:41;23.90;99.90
16635;DHT22;8431;52.458;9.998;2023-08-12T12:15:08;23.80;99.90
16635;DHT22;8431;52.458;9.998;2023-08-12T12:17:39;23.60;99.90
16635;DHT22;8431;52.458;9.998;2023-08-12T12:20:07;23.90;99.90
16635;DHT22;8431;52.458;9.998;2023-08-12T12:22:36;24.30;99.90
16635;DHT22;8431;52.458;9.998;2023-08-12T12:25:06;24.50;99.90
16635;DHT22;8431;52.458;9.998;2023-08-12T12:27:36;24.60;99.90
16635;DHT22;8431;52.458;9.998;2023-08-12T12:30:07;25.10;99.90
16635;DHT22;8431;52.458;9.998;2023-08-12T12:32:34;25.40;99.90
16635;DHT22;8431;52.458;9.998;2023-08-12T12:35:01;25.30;99.90
16635;DHT22;8431;52.458;9.998;2023-08-12T12:37:28;25.40;99.90
16635;DHT22;8431;52.458;9.998;2023-08-12T12:39:55;25.40;99.90
16635;DHT22;8431;52.458;9.998;2023-08-12T12:42:23;25.40;99.90
16635;DHT22;8431;52.458;9.998;2023-08-12T12:44:50;25.50;99.90
16635;DHT22;8431;52.458;9.998;2023-08-12T12:47:19;25.20;99.90
16635;DHT22;8431;52.458;9.998;2023-08-12T12:49:46;25.00;99.90
16635;DHT22;8431;52.458;9.998;2023-08-12T12:52:13;25.20;99.90
16635;DHT22;8431;52.458;9.998;2023-08-12T12:54:40;25.50;99.90
16635;DHT22;8431;52.458;9.998;2023-08-12T12:57:07;25.40;99.90
16635;DHT22;8431;52.458;9.998;2023-08-12T12:59:34;25.00;99.90
16635;DHT22;8431;52.458;9.998;2023-08-12T13:02:01;24.80;99.90
16635;DHT22;8431;52.458;9.998;2023-08-12T13:04:30;24.80;99.90
16635;DHT22;8431;52.458;9.998;2023-08-12T13:06:56;25.00;99.90
16635;DHT22;8431;52.458;9.998;2023-08-12T13:09:23;25.10;99.90
16635;DHT22;8431;52.458;9.998;2023-08-12T13:11:50;25.40;99.90
16635;DHT22;8431;52.458;9.998;2023-08-12T13:14:18;25.90;99.90
16635;DHT22;8431;52.458;9.998;2023-08-12T13:16:46;26.40;99.90
16635;DHT22;8431;52.458;9.998;2023-08-12T13:19:13;26.20;99.90
16635;DHT22;8431;52.458;9.998;2023-08-12T13:21:41;25.70;99.90
16635;DHT22;8431;52.458;9.998;2023-08-12T13:24:08;25.50;99.90
16635;DHT22;8431;52.458;9.998;2023-08-12T13:26:35;25.30;99.90
16635;DHT22;8431;52.458;9.998;2023-08-12T13:29:03;25.30;99.90
16635;DHT22;8431;52.458;9.998;2023-08-12T13:31:30;25.40;99.90
16635;DHT22;8431;52.458;9.998;2023-08-12T13:33:57;25.90;99.90
16635;DHT22;8431;52.458;9.998;2023-08-12T13:36:24;26.20;99.90
16635;DHT22;8431;52.458;9.998;2023-08-12T13:38:52;26.30;99.90
16635;DHT22;8431;52.458;9.998;2023-08-12T13:41:19;26.00;99.90
16635;DHT22;8431;52.458;9.998;2023-08-12T13:43:46;26.10;99.90
16635;DHT22;8431;52.458;9.998;2023-08-12T13:46:13;26.00;99.90
16635;DHT22;8431;52.458;9.998;2023-08-12T13:48:40;26.10;99.90
16635;DHT22;8431;52.458;9.998;2023-08-12T13:51:07;26.30;99.90
16635;DHT22;8431;52.458;9.998;2023-08-12T13:53:35;26.40;99.90
16635;DHT22;8431;52.458;9.998;2023-08-12T13:56:03;26.30;99.90
16635;DHT22;8431;52.458;9.998;2023-08-12T13:58:30;26.30;99.90
16635;DHT22;8431;52.458;9.998;2023-08-12T14:00:57;26.20;99.90
16635;DHT22;8431;52.458;9.998;2023-08-12T14:03:24;26.10;99.90
16635;DHT22;8431;52.458;9.998;2023-08-12T14:05:51;26.10;99.90
16635;DHT22;8431;52.458;9.998;2023-08-12T14:08:18;26.10;99.90
16635;DHT22;8431;52.458;9.998;2023-08-12T14:10:45;26.10;99.90
16635;DHT22;8431;52.458;9.998;2023-08-12T14:13:14;26.20;99.90
16635;DHT22;8431;52.458;9.998;2023-08-12T14:15:41;26.30;99.90
16635;DHT22;8431;52.458;9.998;2023-08-12T14:18:08;26.00;99.90
16635;DHT22;8431;52.458;9.998;2023-08-12T14:20:35;25.90;99.90
16635;DHT22;8431;52.458;9.998;2023-08-12T14:23:02;25.70;99.90
16635;DHT22;8431;52.458;9.998;2023-08-12T14:25:30;25.60;99.90
16635;DHT22;8431;52.458;9.998;2023-08-12T14:31:19;25.40;99.90
16635;DHT22;8431;52.458;9.998;2023-08-12T14:34:29;25.40;99.90
16635;DHT22;8431;52.458;9.998;2023-08-12T14:37:12;25.50;99.90
16635;DHT22;8431;52.458;9.998;2023-08-12T14:39:40;25.30;99.90
16635;DHT22;8431;52.458;9.998;2023-08-12T14:42:07;25.30;99.90
16635;DHT22;8431;52.458;9.998;2023-08-12T14:44:39;25.40;99.90
16635;DHT22;8431;52.458;9.998;2023-08-12T14:47:08;25.40;99.90
16635;DHT22;8431;52.458;9.998;2023-08-12T14:49:39;25.30;99.90
16635;DHT22;8431;52.458;9.998;2023-08-12T14:52:15;25.40;99.90
16635;DHT22;8431;52.458;9.998;2023-08-12T14:54:42;25.40;99.90
16635;DHT22;8431;52.458;9.998;2023-08-12T14:57:09;25.40;99.90
16635;DHT22;8431;52.458;9.998;2023-08-12T14:59:36;25.40;99.90
16635;DHT22;8431;52.458;9.998;2023-08-12T15:02:03;25.50;99.90
16635;DHT22;8431;52.458;9.998;2023-08-12T15:04:32;26.00;99.90
16635;DHT22;8431;52.458;9.998;2023-08-12T15:06:58;25.70;99.90
16635;DHT22;8431;52.458;9.998;2023-08-12T15:09:25;25.70;99.90
16635;DHT22;8431;52.458;9.998;2023-08-12T15:11:52;25.50;99.90
16635;DHT22;8431;52.458;9.998;2023-08-12T15:14:19;25.20;99.90
16635;DHT22;8431;52.458;9.998;2023-08-12T15:16:46;25.10;99.90
16635;DHT22;8431;52.458;9.998;2023-08-12T15:19:13;24.70;99.90
16635;DHT22;8431;52.458;9.998;2023-08-12T15:21:41;24.50;99.90
16635;DHT22;8431;52.458;9.998;2023-08-12T15:24:36;24.30;99.90
16635;DHT22;8431;52.458;9.998;2023-08-12T15:27:07;24.00;99.90
16635;DHT22;8431;52.458;9.998;2023-08-12T15:29:34;23.90;99.90
16635;DHT22;8431;52.458;9.998;2023-08-12T15:32:01;23.80;99.90
16635;DHT22;8431;52.458;9.998;2023-08-12T15:34:29;23.70;99.90
16635;DHT22;8431;52.458;9.998;2023-08-12T15:36:57;23.60;99.90
16635;DHT22;8431;52.458;9.998;2023-08-12T15:39:24;23.50;99.90
16635;DHT22;8431;52.458;9.998;2023-08-12T15:41:51;23.40;99.90
16635;DHT22;8431;52.458;9.998;2023-08-12T15:44:21;23.30;99.90
16635;DHT22;8431;52.458;9.998;2023-08-12T15:46:48;23.20;99.90
16635;DHT22;8431;52.458;9.998;2023-08-12T15:49:22;23.00;99.90
16635;DHT22;8431;52.458;9.998;2023-08-12T15:51:49;23.00;99.90
16635;DHT22;8431;52.458;9.998;2023-08-12T15:54:20;22.90;99.90
16635;DHT22;8431;52.458;9.998;2023-08-12T15:56:48;23.00;99.90
16635;DHT22;8431;52.458;9.998;2023-08-12T15:59:15;23.00;99.90